Station Historical Data
Daily Summary for June 10, 2012 Units:  English    Metric   Both
« Previous Day
Next Day »
Daily Weekly Monthly Yearly Custom
  High: Low: Average:
Temperature: 75.5 °F 67.0 °F 70.4 °F
Dew Point: 71.1 °F 60.3 °F 66.5 °F
Humidity: 93% 67% 88%
Wind Speed: 11.0mph 1.0mph 4.2mph
Wind Gust: 15.0mph - -
Wind- - ESE
Pressure: 29.94 in 29.89 in -
Precipitation: 0.22 in    
Historical Graphs
 
 
Tabular Data for June 10, 2012
Time Temperature Dew Point Pressure Wind Wind Speed Wind Gust Humidity Rainfall Rate (Hourly) Conditions
00:00 71.1 °F 60.8 °F 29.92 in ESE 2.0 mph 2.0 mph 70% 0.00 in
00:05 71.0 °F 61.1 °F 29.92 in ESE 2.0 mph 2.0 mph 71% 0.00 in
00:10 70.9 °F 61.0 °F 29.92 in ESE 3.0 mph 3.0 mph 71% 0.00 in
00:15 71.0 °F 60.7 °F 29.92 in ESE 2.0 mph 4.0 mph 70% 0.00 in
00:20 71.4 °F 60.3 °F 29.92 in SSE 5.0 mph 7.0 mph 68% 0.00 in
00:25 72.0 °F 60.5 °F 29.92 in SE 6.0 mph 9.0 mph 67% 0.00 in
00:30 72.0 °F 60.5 °F 29.92 in SSE 3.0 mph 6.0 mph 67% 0.00 in
00:35 71.8 °F 60.7 °F 29.93 in SSE 6.0 mph 7.0 mph 68% 0.00 in
00:40 71.9 °F 60.4 °F 29.93 in SSE 6.0 mph 10.0 mph 67% 0.00 in
00:45 72.0 °F 60.9 °F 29.93 in SSE 8.0 mph 10.0 mph 68% 0.00 in
00:50 71.9 °F 61.2 °F 29.92 in South 8.0 mph 11.0 mph 69% 0.00 in
00:55 71.2 °F 62.9 °F 29.92 in South 3.0 mph 14.0 mph 75% 0.00 in
01:00 70.4 °F 62.8 °F 29.92 in South 6.0 mph 9.0 mph 77% 0.00 in
01:05 69.9 °F 62.4 °F 29.91 in SE 4.0 mph 7.0 mph 77% 0.00 in
01:10 69.7 °F 62.5 °F 29.91 in SE 4.0 mph 8.0 mph 78% 0.00 in
01:16 69.6 °F 62.4 °F 29.91 in ESE 2.0 mph 6.0 mph 78% 0.00 in
01:21 69.5 °F 62.3 °F 29.90 in SE 2.0 mph 4.0 mph 78% 0.00 in
01:26 69.6 °F 62.4 °F 29.90 in East 4.0 mph 5.0 mph 78% 0.00 in
01:31 69.7 °F 62.2 °F 29.90 in SE 2.0 mph 5.0 mph 77% 0.00 in
01:36 69.7 °F 62.2 °F 29.90 in ESE 2.0 mph 5.0 mph 77% 0.00 in
01:41 69.8 °F 62.3 °F 29.90 in ESE 1.0 mph 3.0 mph 77% 0.00 in
01:46 69.8 °F 61.9 °F 29.90 in SE 4.0 mph 4.0 mph 76% 0.00 in
01:51 69.9 °F 62.0 °F 29.89 in SE 2.0 mph 5.0 mph 76% 0.00 in
01:56 69.9 °F 62.0 °F 29.89 in SE 1.0 mph 4.0 mph 76% 0.00 in
02:01 69.8 °F 61.5 °F 29.89 in ESE 2.0 mph 5.0 mph 75% 0.00 in
02:06 69.7 °F 61.8 °F 29.89 in ESE 3.0 mph 3.0 mph 76% 0.00 in
02:11 69.6 °F 61.7 °F 29.89 in East 3.0 mph 4.0 mph 76% 0.00 in
02:16 69.5 °F 61.6 °F 29.89 in ESE 2.0 mph 5.0 mph 76% 0.00 in
02:21 69.5 °F 61.6 °F 29.89 in ESE 3.0 mph 5.0 mph 76% 0.00 in
02:26 69.6 °F 61.3 °F 29.89 in ESE 1.0 mph 6.0 mph 75% 0.00 in
02:31 69.7 °F 61.4 °F 29.89 in SE 2.0 mph 3.0 mph 75% 0.00 in
02:36 69.8 °F 61.5 °F 29.89 in SE 2.0 mph 4.0 mph 75% 0.00 in
02:41 69.7 °F 61.4 °F 29.89 in East 3.0 mph 4.0 mph 75% 0.00 in
02:46 69.7 °F 61.4 °F 29.89 in ESE 2.0 mph 6.0 mph 75% 0.00 in
02:51 69.8 °F 61.2 °F 29.89 in ESE 4.0 mph 4.0 mph 74% 0.00 in
02:56 69.9 °F 61.2 °F 29.89 in ESE 3.0 mph 5.0 mph 74% 0.00 in
03:01 70.0 °F 61.3 °F 29.89 in SE 3.0 mph 5.0 mph 74% 0.00 in
03:06 70.0 °F 61.0 °F 29.89 in ESE 6.0 mph 7.0 mph 73% 0.00 in
03:11 70.1 °F 61.0 °F 29.89 in SE 3.0 mph 7.0 mph 73% 0.00 in
03:16 70.2 °F 61.2 °F 29.89 in SE 5.0 mph 7.0 mph 73% 0.00 in
03:21 70.2 °F 61.5 °F 29.89 in SSE 5.0 mph 9.0 mph 74% 0.00 in
03:26 69.6 °F 62.1 °F 29.89 in ESE 5.0 mph 15.0 mph 77% 0.00 in
03:31 68.8 °F 62.0 °F 29.89 in ESE 3.0 mph 9.0 mph 79% 0.00 in
03:36 68.1 °F 62.4 °F 29.89 in ESE 2.0 mph 4.0 mph 82% 0.00 in
03:41 67.6 °F 62.3 °F 29.89 in SE 2.0 mph 4.0 mph 83% 0.00 in
03:46 67.4 °F 62.4 °F 29.89 in SE 1.0 mph 5.0 mph 84% 0.00 in
03:51 67.3 °F 62.0 °F 29.89 in SE 3.0 mph 5.0 mph 83% 0.00 in
03:57 67.6 °F 62.3 °F 29.89 in SE 5.0 mph 6.0 mph 83% 0.00 in
04:02 67.9 °F 62.5 °F 29.89 in ESE 3.0 mph 7.0 mph 83% 0.00 in
04:07 67.8 °F 62.8 °F 29.89 in ESE 2.0 mph 7.0 mph 84% 0.00 in
04:12 67.5 °F 62.8 °F 29.89 in ESE 4.0 mph 5.0 mph 85% 0.00 in
04:17 67.4 °F 62.7 °F 29.89 in SE 3.0 mph 6.0 mph 85% 0.00 in
04:22 67.3 °F 63.0 °F 29.89 in ESE 5.0 mph 5.0 mph 86% 0.00 in
04:27 67.2 °F 62.9 °F 29.89 in ESE 4.0 mph 4.0 mph 86% 0.00 in
04:32 67.2 °F 62.9 °F 29.89 in ESE 3.0 mph 4.0 mph 86% 0.00 in
04:37 67.1 °F 63.1 °F 29.89 in ESE 4.0 mph 4.0 mph 87% 0.00 in
04:42 67.0 °F 62.7 °F 29.89 in East 4.0 mph 4.0 mph 86% 0.00 in
04:47 67.1 °F 62.8 °F 29.89 in East 3.0 mph 5.0 mph 86% 0.00 in
04:52 67.1 °F 62.8 °F 29.89 in ESE 2.0 mph 4.0 mph 86% 0.00 in
04:57 67.1 °F 62.8 °F 29.89 in SE 2.0 mph 6.0 mph 86% 0.00 in
05:02 67.1 °F 62.8 °F 29.89 in ESE 3.0 mph 5.0 mph 86% 0.00 in
05:07 67.2 °F 63.2 °F 29.89 in SE 4.0 mph 5.0 mph 87% 0.00 in
05:12 67.2 °F 63.2 °F 29.89 in ESE 4.0 mph 5.0 mph 87% 0.00 in
05:17 67.3 °F 63.3 °F 29.89 in SE 2.0 mph 9.0 mph 87% 0.00 in
05:22 67.3 °F 63.3 °F 29.89 in ESE 2.0 mph 6.0 mph 87% 0.00 in
05:27 67.3 °F 63.6 °F 29.89 in East 5.0 mph 5.0 mph 88% 0.00 in
05:32 67.4 °F 63.7 °F 29.89 in ESE 4.0 mph 5.0 mph 88% 0.00 in
05:37 67.4 °F 63.7 °F 29.90 in ESE 4.0 mph 6.0 mph 88% 0.00 in
05:42 67.5 °F 63.8 °F 29.90 in ESE 3.0 mph 6.0 mph 88% 0.00 in
05:47 67.5 °F 63.8 °F 29.90 in SE 4.0 mph 6.0 mph 88% 0.00 in
05:52 67.6 °F 63.9 °F 29.90 in ESE 3.0 mph 6.0 mph 88% 0.00 in
05:57 67.7 °F 64.0 °F 29.90 in East 4.0 mph 6.0 mph 88% 0.00 in
06:02 67.8 °F 64.1 °F 29.90 in ESE 4.0 mph 6.0 mph 88% 0.00 in
06:07 67.9 °F 64.2 °F 29.90 in ESE 10.0 mph 10.0 mph 88% 0.00 in
06:12 68.0 °F 64.3 °F 29.90 in SE 6.0 mph 8.0 mph 88% 0.00 in
06:17 68.0 °F 64.3 °F 29.90 in ESE 6.0 mph 9.0 mph 88% 0.00 in
06:22 67.9 °F 64.5 °F 29.90 in East 6.0 mph 8.0 mph 89% 0.00 in
06:27 67.9 °F 64.5 °F 29.90 in East 7.0 mph 7.0 mph 89% 0.00 in
06:32 68.0 °F 64.6 °F 29.91 in SSE 4.0 mph 8.0 mph 89% 0.00 in
06:37 68.0 °F 64.6 °F 29.91 in ESE 7.0 mph 8.0 mph 89% 0.00 in
06:42 68.0 °F 64.6 °F 29.91 in SE 5.0 mph 7.0 mph 89% 0.00 in
06:47 67.9 °F 64.5 °F 29.91 in East 4.0 mph 6.0 mph 89% 0.00 in
06:52 67.9 °F 64.9 °F 29.91 in ESE 6.0 mph 6.0 mph 90% 0.00 in
06:57 67.9 °F 64.9 °F 29.91 in East 7.0 mph 8.0 mph 90% 0.00 in
07:03 67.9 °F 64.9 °F 29.91 in ESE 4.0 mph 7.0 mph 90% 0.00 in
07:08 67.9 °F 64.9 °F 29.91 in ESE 3.0 mph 7.0 mph 90% 0.00 in
07:13 67.9 °F 64.9 °F 29.91 in East 8.0 mph 8.0 mph 90% 0.00 in
07:18 67.8 °F 64.8 °F 29.91 in ESE 3.0 mph 7.0 mph 90% 0.00 in
07:23 67.8 °F 64.8 °F 29.91 in East 6.0 mph 7.0 mph 90% 0.00 in
07:28 67.8 °F 65.1 °F 29.91 in East 6.0 mph 7.0 mph 91% 0.00 in
07:33 67.9 °F 65.2 °F 29.92 in ESE 5.0 mph 6.0 mph 91% 0.00 in
07:38 67.8 °F 65.1 °F 29.92 in SE 6.0 mph 7.0 mph 91% 0.00 in
07:43 67.8 °F 65.1 °F 29.92 in East 3.0 mph 8.0 mph 91% 0.00 in
07:48 67.7 °F 65.0 °F 29.92 in ENE 5.0 mph 7.0 mph 91% 0.00 in
07:53 67.7 °F 65.0 °F 29.92 in ENE 3.0 mph 8.0 mph 91% 0.00 in
07:58 67.7 °F 65.0 °F 29.92 in ESE 5.0 mph 7.0 mph 91% 0.00 in
08:03 67.7 °F 65.0 °F 29.92 in SE 4.0 mph 8.0 mph 91% 0.00 in
08:08 67.6 °F 64.9 °F 29.92 in ESE 3.0 mph 7.0 mph 91% 0.00 in
08:13 67.7 °F 65.0 °F 29.92 in SE 3.0 mph 9.0 mph 91% 0.00 in
08:18 67.7 °F 65.3 °F 29.92 in ESE 5.0 mph 6.0 mph 92% 0.00 in
08:23 67.7 °F 65.3 °F 29.92 in SE 3.0 mph 8.0 mph 92% 0.00 in
08:28 67.7 °F 65.3 °F 29.92 in SE 3.0 mph 8.0 mph 92% 0.00 in
08:33 67.7 °F 65.3 °F 29.92 in East 4.0 mph 7.0 mph 92% 0.00 in
08:38 67.7 °F 65.3 °F 29.92 in East 9.0 mph 9.0 mph 92% 0.00 in
08:43 67.7 °F 65.3 °F 29.93 in ENE 2.0 mph 7.0 mph 92% 0.00 in
08:48 67.7 °F 65.3 °F 29.93 in East 5.0 mph 7.0 mph 92% 0.00 in
08:53 67.8 °F 65.4 °F 29.93 in ENE 3.0 mph 7.0 mph 92% 0.00 in
08:58 67.9 °F 65.5 °F 29.93 in ENE 11.0 mph 11.0 mph 92% 0.00 in
09:03 67.9 °F 65.5 °F 29.93 in East 9.0 mph 9.0 mph 92% 0.00 in
09:08 67.9 °F 65.5 °F 29.93 in SE 2.0 mph 8.0 mph 92% 0.00 in
09:13 67.9 °F 65.5 °F 29.93 in ESE 4.0 mph 7.0 mph 92% 0.00 in
09:18 67.9 °F 65.8 °F 29.93 in ESE 4.0 mph 6.0 mph 93% 0.00 in
09:23 67.8 °F 65.7 °F 29.94 in ESE 4.0 mph 6.0 mph 93% 0.00 in
09:28 67.8 °F 65.7 °F 29.94 in ESE 3.0 mph 6.0 mph 93% 0.00 in
09:33 67.8 °F 65.7 °F 29.93 in ESE 4.0 mph 7.0 mph 93% 0.00 in
09:38 67.7 °F 65.6 °F 29.94 in ESE 6.0 mph 8.0 mph 93% 0.00 in
09:43 67.7 °F 65.6 °F 29.93 in SE 5.0 mph 7.0 mph 93% 0.00 in
09:48 67.6 °F 65.5 °F 29.93 in SE 4.0 mph 7.0 mph 93% 0.00 in
09:53 67.6 °F 65.5 °F 29.93 in ESE 3.0 mph 6.0 mph 93% 0.00 in
09:58 67.5 °F 65.4 °F 29.93 in ESE 7.0 mph 9.0 mph 93% 0.00 in
10:03 67.5 °F 65.4 °F 29.93 in East 7.0 mph 7.0 mph 93% 0.00 in
10:08 67.6 °F 65.5 °F 29.94 in East 3.0 mph 6.0 mph 93% 0.00 in
10:13 67.7 °F 65.6 °F 29.93 in East 4.0 mph 6.0 mph 93% 0.00 in
10:18 67.7 °F 65.6 °F 29.93 in ESE 6.0 mph 8.0 mph 93% 0.00 in
10:23 67.8 °F 65.7 °F 29.94 in East 5.0 mph 8.0 mph 93% 0.00 in
10:28 67.9 °F 65.8 °F 29.94 in SE 3.0 mph 7.0 mph 93% 0.00 in
10:33 68.0 °F 65.9 °F 29.94 in SE 4.0 mph 7.0 mph 93% 0.00 in
10:38 67.9 °F 65.8 °F 29.94 in SE 4.0 mph 10.0 mph 93% 0.00 in
10:43 68.0 °F 65.9 °F 29.94 in SE 5.0 mph 9.0 mph 93% 0.00 in
10:48 68.1 °F 66.0 °F 29.93 in SE 5.0 mph 7.0 mph 93% 0.00 in
10:53 68.2 °F 66.1 °F 29.94 in ESE 11.0 mph 11.0 mph 93% 0.00 in
10:58 68.3 °F 66.2 °F 29.94 in ESE 6.0 mph 10.0 mph 93% 0.00 in
11:03 68.4 °F 66.3 °F 29.94 in SE 4.0 mph 10.0 mph 93% 0.00 in
11:09 68.9 °F 66.8 °F 29.93 in East 7.0 mph 8.0 mph 93% 0.00 in
11:14 69.0 °F 66.6 °F 29.94 in ESE 6.0 mph 10.0 mph 92% 0.00 in
11:19 69.2 °F 66.8 °F 29.93 in ESE 4.0 mph 11.0 mph 92% 0.00 in
11:24 69.5 °F 67.1 °F 29.93 in ESE 9.0 mph 10.0 mph 92% 0.00 in
11:29 69.9 °F 67.5 °F 29.93 in SE 4.0 mph 8.0 mph 92% 0.00 in
11:34 70.5 °F 68.1 °F 29.93 in East 4.0 mph 8.0 mph 92% 0.00 in
11:39 70.8 °F 68.1 °F 29.93 in East 8.0 mph 8.0 mph 91% 0.00 in
11:44 71.0 °F 67.9 °F 29.93 in SE 7.0 mph 9.0 mph 90% 0.00 in
11:49 71.0 °F 67.9 °F 29.93 in ESE 6.0 mph 8.0 mph 90% 0.00 in
11:54 71.2 °F 68.1 °F 29.93 in ESE 8.0 mph 9.0 mph 90% 0.00 in
11:59 71.7 °F 68.9 °F 29.93 in SE 8.0 mph 10.0 mph 91% 0.00 in
12:04 71.5 °F 68.4 °F 29.93 in ESE 7.0 mph 10.0 mph 90% 0.00 in
12:09 71.3 °F 67.9 °F 29.93 in SE 8.0 mph 10.0 mph 89% 0.00 in
12:14 71.2 °F 68.1 °F 29.93 in ESE 8.0 mph 8.0 mph 90% 0.00 in
12:19 71.6 °F 68.5 °F 29.93 in SE 5.0 mph 7.0 mph 90% 0.00 in
12:24 71.6 °F 68.2 °F 29.93 in ESE 6.0 mph 10.0 mph 89% 0.00 in
12:29 71.6 °F 68.5 °F 29.93 in SE 10.0 mph 11.0 mph 90% 0.00 in
12:34 72.0 °F 68.9 °F 29.93 in SE 6.0 mph 11.0 mph 90% 0.00 in
12:39 72.7 °F 68.9 °F 29.93 in SE 11.0 mph 11.0 mph 88% 0.00 in
12:44 72.9 °F 69.1 °F 29.93 in ESE 4.0 mph 8.0 mph 88% 0.00 in
12:49 72.9 °F 69.1 °F 29.93 in East 2.0 mph 8.0 mph 88% 0.00 in
12:54 73.1 °F 69.3 °F 29.93 in East 4.0 mph 8.0 mph 88% 0.00 in
12:59 73.0 °F 69.2 °F 29.93 in ESE 7.0 mph 7.0 mph 88% 0.00 in
13:04 72.9 °F 69.1 °F 29.93 in East 3.0 mph 7.0 mph 88% 0.00 in
13:09 73.0 °F 69.2 °F 29.93 in SE 5.0 mph 9.0 mph 88% 0.00 in
13:14 73.4 °F 69.6 °F 29.92 in SE 8.0 mph 9.0 mph 88% 0.00 in
13:19 73.4 °F 69.3 °F 29.92 in SE 8.0 mph 9.0 mph 87% 0.00 in
13:24 73.3 °F 69.5 °F 29.92 in SE 5.0 mph 9.0 mph 88% 0.00 in
13:29 73.3 °F 69.5 °F 29.92 in ESE 10.0 mph 10.0 mph 88% 0.00 in
13:34 73.0 °F 69.2 °F 29.92 in SE 3.0 mph 9.0 mph 88% 0.00 in
13:39 72.9 °F 69.1 °F 29.93 in SE 7.0 mph 11.0 mph 88% 0.00 in
13:44 72.8 °F 69.0 °F 29.92 in SE 7.0 mph 10.0 mph 88% 0.00 in
13:50 72.7 °F 68.9 °F 29.92 in ESE 6.0 mph 9.0 mph 88% 0.00 in
13:55 72.7 °F 68.9 °F 29.92 in East 8.0 mph 10.0 mph 88% 0.00 in
14:00 72.4 °F 69.0 °F 29.92 in ESE 9.0 mph 11.0 mph 89% 0.00 in
14:05 72.1 °F 69.0 °F 29.93 in ESE 9.0 mph 11.0 mph 90% 0.00 in
14:10 72.0 °F 69.2 °F 29.92 in ESE 4.0 mph 8.0 mph 91% 0.00 in
14:15 72.1 °F 69.0 °F 29.92 in SE 8.0 mph 10.0 mph 90% 0.00 in
14:20 72.3 °F 69.2 °F 29.92 in SE 6.0 mph 9.0 mph 90% 0.00 in
14:25 73.1 °F 70.0 °F 29.92 in ESE 4.0 mph 8.0 mph 90% 0.00 in
14:30 73.3 °F 69.9 °F 29.92 in East 6.0 mph 8.0 mph 89% 0.00 in
14:35 73.2 °F 69.4 °F 29.92 in ESE 4.0 mph 8.0 mph 88% 0.00 in
14:40 73.2 °F 69.8 °F 29.92 in ESE 5.0 mph 8.0 mph 89% 0.00 in
14:45 72.8 °F 69.4 °F 29.91 in ESE 2.0 mph 11.0 mph 89% 0.00 in
14:50 72.7 °F 69.6 °F 29.92 in ESE 8.0 mph 8.0 mph 90% 0.00 in
14:55 72.7 °F 69.6 °F 29.92 in ESE 6.0 mph 9.0 mph 90% 0.00 in
15:00 73.0 °F 69.6 °F 29.92 in East 8.0 mph 10.0 mph 89% 0.00 in
15:05 73.1 °F 69.7 °F 29.91 in ESE 3.0 mph 11.0 mph 89% 0.00 in
15:10 73.6 °F 70.2 °F 29.91 in East 6.0 mph 11.0 mph 89% 0.00 in
15:15 74.2 °F 70.4 °F 29.91 in ESE 7.0 mph 12.0 mph 88% 0.00 in
15:20 74.5 °F 70.4 °F 29.91 in ESE 8.0 mph 11.0 mph 87% 0.00 in
15:25 75.1 °F 70.6 °F 29.90 in ESE 2.0 mph 8.0 mph 86% 0.00 in
15:30 75.5 °F 71.0 °F 29.90 in SE 7.0 mph 8.0 mph 86% 0.00 in
15:35 75.2 °F 70.4 °F 29.90 in ENE 5.0 mph 10.0 mph 85% 0.00 in
15:40 75.2 °F 70.4 °F 29.90 in ENE 7.0 mph 12.0 mph 85% 0.00 in
15:45 75.3 °F 70.5 °F 29.90 in ENE 6.0 mph 8.0 mph 85% 0.00 in
15:50 75.2 °F 70.7 °F 29.90 in SSE 7.0 mph 10.0 mph 86% 0.00 in
15:55 75.3 °F 70.8 °F 29.90 in ESE 6.0 mph 9.0 mph 86% 0.00 in
16:00 75.2 °F 70.7 °F 29.90 in ESE 7.0 mph 9.0 mph 86% 0.00 in
16:05 75.0 °F 70.9 °F 29.90 in ENE 3.0 mph 9.0 mph 87% 0.00 in
16:10 75.1 °F 70.6 °F 29.90 in ESE 4.0 mph 8.0 mph 86% 0.00 in
16:15 75.2 °F 71.1 °F 29.90 in ESE 9.0 mph 9.0 mph 87% 0.00 in
16:20 74.9 °F 70.4 °F 29.90 in East 5.0 mph 7.0 mph 86% 0.00 in
16:25 74.6 °F 70.5 °F 29.90 in ENE 5.0 mph 6.0 mph 87% 0.00 in
16:31 74.4 °F 70.6 °F 29.90 in East 2.0 mph 8.0 mph 88% 0.00 in
16:36 74.2 °F 70.8 °F 29.90 in East 2.0 mph 6.0 mph 89% 0.00 in
16:41 74.0 °F 70.9 °F 29.90 in East 5.0 mph 7.0 mph 90% 0.25 in
16:46 73.4 °F 70.6 °F 29.90 in ESE 4.0 mph 6.0 mph 91% 0.14 in
16:51 73.1 °F 70.3 °F 29.90 in ESE 4.0 mph 6.0 mph 91% 0.11 in
16:56 72.7 °F 70.2 °F 29.90 in East 6.0 mph 6.0 mph 92% 0.08 in
17:01 72.4 °F 69.9 °F 29.90 in ESE 1.0 mph 5.0 mph 92% 0.12 in
17:06 72.3 °F 69.8 °F 29.90 in ESE 5.0 mph 5.0 mph 92% 0.19 in
17:11 72.2 °F 69.8 °F 29.90 in SE 2.0 mph 7.0 mph 92% 0.25 in
17:16 72.0 °F 69.6 °F 29.89 in ESE 2.0 mph 6.0 mph 92% 0.22 in
17:21 72.0 °F 69.6 °F 29.89 in East 2.0 mph 7.0 mph 92% 0.19 in
17:26 71.9 °F 69.4 °F 29.89 in ESE 6.0 mph 9.0 mph 92% 0.14 in
17:31 71.8 °F 69.3 °F 29.90 in East 5.0 mph 9.0 mph 92% 0.08 in
17:36 71.8 °F 69.3 °F 29.90 in ESE 4.0 mph 6.0 mph 92% 0.05 in
17:41 71.7 °F 69.3 °F 29.90 in East 5.0 mph 9.0 mph 92% 0.04 in
17:46 71.6 °F 69.2 °F 29.90 in SE 3.0 mph 7.0 mph 92% 0.04 in
17:51 71.6 °F 69.2 °F 29.90 in ESE 5.0 mph 6.0 mph 92% 0.04 in
17:56 71.6 °F 69.2 °F 29.90 in ESE 2.0 mph 4.0 mph 92% 0.04 in
18:01 71.7 °F 69.3 °F 29.90 in East 3.0 mph 7.0 mph 92% 0.00 in
18:06 71.6 °F 69.2 °F 29.90 in East 5.0 mph 8.0 mph 92% 0.00 in
18:11 71.7 °F 69.3 °F 29.90 in ESE 4.0 mph 7.0 mph 92% 0.00 in
18:16 71.8 °F 69.3 °F 29.90 in ENE 4.0 mph 5.0 mph 92% 0.00 in
18:22 71.9 °F 69.4 °F 29.90 in East 3.0 mph 7.0 mph 92% 0.00 in
18:27 71.9 °F 69.4 °F 29.90 in East 4.0 mph 6.0 mph 92% 0.00 in
18:32 72.0 °F 69.6 °F 29.90 in SE 3.0 mph 6.0 mph 92% 0.00 in
18:37 72.2 °F 69.8 °F 29.90 in ENE 4.0 mph 5.0 mph 92% 0.00 in
18:42 72.3 °F 69.8 °F 29.90 in ESE 3.0 mph 5.0 mph 92% 0.00 in
18:47 72.4 °F 69.9 °F 29.90 in East 4.0 mph 6.0 mph 92% 0.00 in
18:52 72.3 °F 69.8 °F 29.90 in ESE 2.0 mph 6.0 mph 92% 0.00 in
18:57 72.4 °F 69.9 °F 29.90 in ENE 6.0 mph 8.0 mph 92% 0.00 in
19:02 72.4 °F 69.9 °F 29.90 in ESE 2.0 mph 3.0 mph 92% 0.00 in
19:07 72.5 °F 70.1 °F 29.89 in ESE 5.0 mph 5.0 mph 92% 0.00 in
19:12 72.5 °F 70.1 °F 29.89 in East 3.0 mph 6.0 mph 92% 0.00 in
19:17 72.5 °F 70.1 °F 29.89 in ESE 4.0 mph 7.0 mph 92% 0.00 in
19:22 72.5 °F 70.1 °F 29.89 in ENE 3.0 mph 4.0 mph 92% 0.00 in
19:27 72.5 °F 70.1 °F 29.89 in ESE 1.0 mph 5.0 mph 92% 0.00 in
19:32 72.5 °F 70.1 °F 29.89 in ENE 4.0 mph 5.0 mph 92% 0.00 in
19:37 72.5 °F 70.1 °F 29.89 in SE 2.0 mph 6.0 mph 92% 0.00 in
19:42 72.5 °F 70.1 °F 29.89 in East 5.0 mph 7.0 mph 92% 0.00 in
19:47 72.5 °F 70.1 °F 29.90 in East 3.0 mph 4.0 mph 92% 0.00 in
19:52 72.5 °F 70.1 °F 29.90 in East 2.0 mph 4.0 mph 92% 0.00 in
19:57 72.4 °F 69.9 °F 29.90 in ESE 4.0 mph 4.0 mph 92% 0.00 in
20:02 72.3 °F 69.8 °F 29.90 in East 2.0 mph 4.0 mph 92% 0.00 in
20:07 72.2 °F 69.8 °F 29.90 in SE 4.0 mph 4.0 mph 92% 0.00 in
20:12 72.2 °F 69.8 °F 29.90 in SE 2.0 mph 5.0 mph 92% 0.00 in
20:17 72.1 °F 69.7 °F 29.90 in ESE 1.0 mph 4.0 mph 92% 0.00 in
20:22 72.0 °F 69.6 °F 29.90 in ESE 2.0 mph 3.0 mph 92% 0.00 in
20:27 71.9 °F 69.4 °F 29.90 in East 2.0 mph 3.0 mph 92% 0.00 in
20:32 71.8 °F 69.3 °F 29.90 in SSW 2.0 mph 4.0 mph 92% 0.00 in
20:37 70.7 °F 67.9 °F 29.90 in South 2.0 mph 6.0 mph 91% 0.00 in
20:42 70.0 °F 67.3 °F 29.90 in SSW 2.0 mph 3.0 mph 91% 0.00 in
20:47 69.7 °F 67.3 °F 29.90 in SSW 2.0 mph 3.0 mph 92% 0.00 in
20:52 69.4 °F 67.0 °F 29.90 in WSW 2.0 mph 2.0 mph 92% 0.00 in
20:57 69.4 °F 67.0 °F 29.90 in SW 1.0 mph 3.0 mph 92% 0.00 in
21:02 69.3 °F 66.9 °F 29.90 in ESE 2.0 mph 2.0 mph 92% 0.00 in
21:07 69.3 °F 66.9 °F 29.90 in East 2.0 mph 2.0 mph 92% 0.00 in
21:12 69.2 °F 66.8 °F 29.90 in ENE 1.0 mph 2.0 mph 92% 0.00 in
21:17 69.4 °F 67.3 °F 29.90 in East 1.0 mph 2.0 mph 93% 0.00 in
21:22 69.7 °F 67.6 °F 29.89 in ENE 1.0 mph 2.0 mph 93% 0.00 in
21:27 69.9 °F 67.8 °F 29.89 in East 1.0 mph 2.0 mph 93% 0.00 in
21:32 70.2 °F 68.1 °F 29.89 in ESE 2.0 mph 2.0 mph 93% 0.00 in
21:37 70.4 °F 68.3 °F 29.89 in ESE 1.0 mph 4.0 mph 93% 0.00 in
21:42 70.5 °F 68.4 °F 29.89 in ESE 2.0 mph 3.0 mph 93% 0.00 in
21:48 70.6 °F 68.5 °F 29.89 in ESE 3.0 mph 5.0 mph 93% 0.00 in
21:53 70.6 °F 68.5 °F 29.89 in SE 2.0 mph 4.0 mph 93% 0.00 in
21:58 70.6 °F 68.5 °F 29.89 in East 1.0 mph 5.0 mph 93% 0.00 in
22:03 70.6 °F 68.5 °F 29.89 in ESE 2.0 mph 6.0 mph 93% 0.00 in
22:08 70.6 °F 68.5 °F 29.89 in ESE 4.0 mph 6.0 mph 93% 0.00 in
22:13 70.6 °F 68.5 °F 29.89 in East 6.0 mph 7.0 mph 93% 0.00 in
22:18 70.5 °F 68.4 °F 29.89 in ESE 2.0 mph 4.0 mph 93% 0.00 in
22:23 70.5 °F 68.4 °F 29.89 in ESE 5.0 mph 8.0 mph 93% 0.00 in
22:28 70.5 °F 68.4 °F 29.90 in East 5.0 mph 5.0 mph 93% 0.00 in
22:33 70.4 °F 68.3 °F 29.89 in ESE 3.0 mph 6.0 mph 93% 0.00 in
22:38 70.4 °F 68.3 °F 29.90 in SE 4.0 mph 5.0 mph 93% 0.00 in
22:43 70.3 °F 68.2 °F 29.90 in SE 2.0 mph 5.0 mph 93% 0.00 in
22:48 70.3 °F 68.2 °F 29.90 in ESE 5.0 mph 6.0 mph 93% 0.00 in
22:53 70.3 °F 68.2 °F 29.90 in SE 2.0 mph 6.0 mph 93% 0.00 in
22:58 70.3 °F 68.2 °F 29.90 in ESE 2.0 mph 6.0 mph 93% 0.00 in
23:03 70.4 °F 68.3 °F 29.90 in SE 3.0 mph 6.0 mph 93% 0.00 in
23:08 70.4 °F 68.3 °F 29.90 in SE 5.0 mph 5.0 mph 93% 0.00 in
23:13 70.3 °F 68.2 °F 29.90 in SE 2.0 mph 6.0 mph 93% 0.00 in
23:18 70.3 °F 68.2 °F 29.90 in SE 1.0 mph 5.0 mph 93% 0.00 in
23:23 70.4 °F 68.3 °F 29.90 in ESE 2.0 mph 5.0 mph 93% 0.00 in
23:28 70.3 °F 68.2 °F 29.90 in ESE 3.0 mph 4.0 mph 93% 0.40 in
23:33 70.3 °F 68.2 °F 29.90 in East 2.0 mph 4.0 mph 93% 0.31 in
23:38 70.3 °F 68.2 °F 29.90 in SE 3.0 mph 3.0 mph 93% 0.10 in
23:43 70.3 °F 68.2 °F 29.90 in SE 4.0 mph 6.0 mph 93% 0.05 in
23:48 70.3 °F 68.2 °F 29.90 in SE 1.0 mph 6.0 mph 93% 0.04 in
23:53 70.3 °F 68.2 °F 29.90 in ESE 6.0 mph 8.0 mph 93% 0.04 in
23:58 70.3 °F 68.2 °F 29.90 in SE 3.0 mph 6.0 mph 93% 0.04 in
Compliments of Weather Underground